sensor_id;sensor_type;location;lat;lon;timestamp;temperature;humidity
4985;DHT22;2509;49.902;8.600;2023-03-01T00:00:32;0.50;99.90
4985;DHT22;2509;49.902;8.600;2023-03-01T00:03:34;0.40;99.90
4985;DHT22;2509;49.902;8.600;2023-03-01T00:06:36;0.40;99.90
4985;DHT22;2509;49.902;8.600;2023-03-01T00:09:38;0.50;99.90
4985;DHT22;2509;49.902;8.600;2023-03-01T00:12:40;0.50;99.90
4985;DHT22;2509;49.902;8.600;2023-03-01T00:15:43;0.50;99.90
4985;DHT22;2509;49.902;8.600;2023-03-01T00:18:45;0.50;99.90
4985;DHT22;2509;49.902;8.600;2023-03-01T00:21:47;0.50;99.90
4985;DHT22;2509;49.902;8.600;2023-03-01T00:24:49;0.50;99.90
4985;DHT22;2509;49.902;8.600;2023-03-01T00:27:50;0.50;99.90
4985;DHT22;2509;49.902;8.600;2023-03-01T00:30:53;0.40;99.90
4985;DHT22;2509;49.902;8.600;2023-03-01T00:33:57;0.40;99.90
4985;DHT22;2509;49.902;8.600;2023-03-01T00:36:59;0.40;99.90
4985;DHT22;2509;49.902;8.600;2023-03-01T00:40:06;0.30;99.90
4985;DHT22;2509;49.902;8.600;2023-03-01T00:43:08;0.40;99.90
4985;DHT22;2509;49.902;8.600;2023-03-01T00:46:13;0.40;99.90
4985;DHT22;2509;49.902;8.600;2023-03-01T00:49:15;0.40;99.90
4985;DHT22;2509;49.902;8.600;2023-03-01T00:52:17;0.40;99.90
4985;DHT22;2509;49.902;8.600;2023-03-01T00:55:19;0.40;99.90
4985;DHT22;2509;49.902;8.600;2023-03-01T00:58:20;0.40;99.90
4985;DHT22;2509;49.902;8.600;2023-03-01T01:01:26;0.40;99.90
4985;DHT22;2509;49.902;8.600;2023-03-01T01:04:30;0.30;99.90
4985;DHT22;2509;49.902;8.600;2023-03-01T01:07:32;0.30;99.90
4985;DHT22;2509;49.902;8.600;2023-03-01T01:10:34;0.30;99.90
4985;DHT22;2509;49.902;8.600;2023-03-01T01:13:36;0.30;99.90
4985;DHT22;2509;49.902;8.600;2023-03-01T01:16:39;0.30;99.90
4985;DHT22;2509;49.902;8.600;2023-03-01T01:19:41;0.30;99.90
4985;DHT22;2509;49.902;8.600;2023-03-01T01:22:43;0.20;99.90
4985;DHT22;2509;49.902;8.600;2023-03-01T01:25:45;0.20;99.90
4985;DHT22;2509;49.902;8.600;2023-03-01T01:28:47;0.10;99.90
4985;DHT22;2509;49.902;8.600;2023-03-01T01:31:50;0.10;99.90
4985;DHT22;2509;49.902;8.600;2023-03-01T01:34:52;0.10;99.90
4985;DHT22;2509;49.902;8.600;2023-03-01T01:37:54;0.10;99.90
4985;DHT22;2509;49.902;8.600;2023-03-01T01:40:55;0.00;99.90
4985;DHT22;2509;49.902;8.600;2023-03-01T01:44:13;0.00;99.90
4985;DHT22;2509;49.902;8.600;2023-03-01T01:47:18;0.00;99.90
4985;DHT22;2509;49.902;8.600;2023-03-01T01:50:21;0.00;99.90
4985;DHT22;2509;49.902;8.600;2023-03-01T01:53:24;-0.10;99.90
4985;DHT22;2509;49.902;8.600;2023-03-01T01:56:28;-0.10;99.90
4985;DHT22;2509;49.902;8.600;2023-03-01T01:59:31;-0.10;99.90
4985;DHT22;2509;49.902;8.600;2023-03-01T02:02:35;-0.10;99.90
4985;DHT22;2509;49.902;8.600;2023-03-01T02:05:42;0.00;99.90
4985;DHT22;2509;49.902;8.600;2023-03-01T02:08:47;0.00;99.90
4985;DHT22;2509;49.902;8.600;2023-03-01T02:11:51;0.10;99.90
4985;DHT22;2509;49.902;8.600;2023-03-01T02:14:53;0.10;99.90
4985;DHT22;2509;49.902;8.600;2023-03-01T02:17:56;0.00;99.90
4985;DHT22;2509;49.902;8.600;2023-03-01T02:21:17;0.00;99.90
4985;DHT22;2509;49.902;8.600;2023-03-01T02:24:27;0.00;99.90
4985;DHT22;2509;49.902;8.600;2023-03-01T02:27:38;0.00;99.90
4985;DHT22;2509;49.902;8.600;2023-03-01T02:30:45;0.10;99.90
4985;DHT22;2509;49.902;8.600;2023-03-01T02:34:02;0.10;99.90
4985;DHT22;2509;49.902;8.600;2023-03-01T02:37:09;0.10;99.90
4985;DHT22;2509;49.902;8.600;2023-03-01T02:40:16;0.10;99.90
4985;DHT22;2509;49.902;8.600;2023-03-01T02:43:19;0.20;99.90
4985;DHT22;2509;49.902;8.600;2023-03-01T02:46:25;0.10;99.90
4985;DHT22;2509;49.902;8.600;2023-03-01T02:49:29;0.10;99.90
4985;DHT22;2509;49.902;8.600;2023-03-01T02:52:40;0.10;99.90
4985;DHT22;2509;49.902;8.600;2023-03-01T02:55:45;0.10;99.90
4985;DHT22;2509;49.902;8.600;2023-03-01T02:58:47;0.10;99.90
4985;DHT22;2509;49.902;8.600;2023-03-01T03:01:53;0.10;99.90
4985;DHT22;2509;49.902;8.600;2023-03-01T03:04:55;0.10;99.90
4985;DHT22;2509;49.902;8.600;2023-03-01T03:07:57;0.10;99.90
4985;DHT22;2509;49.902;8.600;2023-03-01T03:10:59;0.10;99.90
4985;DHT22;2509;49.902;8.600;2023-03-01T03:14:01;0.10;99.90
4985;DHT22;2509;49.902;8.600;2023-03-01T03:17:04;0.10;99.90
4985;DHT22;2509;49.902;8.600;2023-03-01T03:20:10;0.10;99.90
4985;DHT22;2509;49.902;8.600;2023-03-01T03:23:13;0.10;99.90
4985;DHT22;2509;49.902;8.600;2023-03-01T03:26:14;0.10;99.90
4985;DHT22;2509;49.902;8.600;2023-03-01T03:29:16;0.10;99.90
4985;DHT22;2509;49.902;8.600;2023-03-01T03:32:19;0.00;99.90
4985;DHT22;2509;49.902;8.600;2023-03-01T03:35:23;0.10;99.90
4985;DHT22;2509;49.902;8.600;2023-03-01T03:38:25;0.10;99.90
4985;DHT22;2509;49.902;8.600;2023-03-01T03:41:26;0.10;99.90
4985;DHT22;2509;49.902;8.600;2023-03-01T03:44:28;0.00;99.90
4985;DHT22;2509;49.902;8.600;2023-03-01T03:47:31;0.00;99.90
4985;DHT22;2509;49.902;8.600;2023-03-01T03:50:33;0.00;99.90
4985;DHT22;2509;49.902;8.600;2023-03-01T03:53:35;0.00;99.90
4985;DHT22;2509;49.902;8.600;2023-03-01T03:56:37;0.10;99.90
4985;DHT22;2509;49.902;8.600;2023-03-01T03:59:38;0.10;99.90
4985;DHT22;2509;49.902;8.600;2023-03-01T04:02:42;0.10;99.90
4985;DHT22;2509;49.902;8.600;2023-03-01T04:05:44;0.20;99.90
4985;DHT22;2509;49.902;8.600;2023-03-01T04:08:47;0.20;99.90
4985;DHT22;2509;49.902;8.600;2023-03-01T04:11:51;0.20;99.90
4985;DHT22;2509;49.902;8.600;2023-03-01T04:14:53;0.20;99.90
4985;DHT22;2509;49.902;8.600;2023-03-01T04:17:56;0.20;99.90
4985;DHT22;2509;49.902;8.600;2023-03-01T04:20:59;0.20;99.90
4985;DHT22;2509;49.902;8.600;2023-03-01T04:24:01;0.20;99.90
4985;DHT22;2509;49.902;8.600;2023-03-01T04:27:04;0.20;99.90
4985;DHT22;2509;49.902;8.600;2023-03-01T04:30:07;0.30;99.90
4985;DHT22;2509;49.902;8.600;2023-03-01T04:33:10;0.30;99.90
4985;DHT22;2509;49.902;8.600;2023-03-01T04:36:14;0.30;99.90
4985;DHT22;2509;49.902;8.600;2023-03-01T04:39:16;0.30;99.90
4985;DHT22;2509;49.902;8.600;2023-03-01T04:42:19;0.20;99.90
4985;DHT22;2509;49.902;8.600;2023-03-01T04:45:21;0.20;99.90
4985;DHT22;2509;49.902;8.600;2023-03-01T04:48:24;0.30;99.90
4985;DHT22;2509;49.902;8.600;2023-03-01T04:51:26;0.30;99.90
4985;DHT22;2509;49.902;8.600;2023-03-01T04:54:27;0.20;99.90
4985;DHT22;2509;49.902;8.600;2023-03-01T04:57:29;0.20;99.90
4985;DHT22;2509;49.902;8.600;2023-03-01T05:00:31;0.20;99.90
4985;DHT22;2509;49.902;8.600;2023-03-01T05:03:34;0.20;99.90
4985;DHT22;2509;49.902;8.600;2023-03-01T05:06:36;0.30;99.90
4985;DHT22;2509;49.902;8.600;2023-03-01T05:09:38;0.20;99.90
4985;DHT22;2509;49.902;8.600;2023-03-01T05:12:39;0.20;99.90
4985;DHT22;2509;49.902;8.600;2023-03-01T05:15:41;0.30;99.90
4985;DHT22;2509;49.902;8.600;2023-03-01T05:18:44;0.20;99.90
4985;DHT22;2509;49.902;8.600;2023-03-01T05:21:46;0.20;99.90
4985;DHT22;2509;49.902;8.600;2023-03-01T05:25:05;0.20;99.90
4985;DHT22;2509;49.902;8.600;2023-03-01T05:28:11;0.20;99.90
4985;DHT22;2509;49.902;8.600;2023-03-01T05:31:13;0.10;99.90
4985;DHT22;2509;49.902;8.600;2023-03-01T05:34:16;0.20;99.90
4985;DHT22;2509;49.902;8.600;2023-03-01T05:37:17;0.20;99.90
4985;DHT22;2509;49.902;8.600;2023-03-01T05:40:21;0.20;99.90
4985;DHT22;2509;49.902;8.600;2023-03-01T05:43:24;0.10;99.90
4985;DHT22;2509;49.902;8.600;2023-03-01T05:46:26;0.20;99.90
4985;DHT22;2509;49.902;8.600;2023-03-01T05:49:31;0.20;99.90
4985;DHT22;2509;49.902;8.600;2023-03-01T05:52:33;0.10;99.90
4985;DHT22;2509;49.902;8.600;2023-03-01T05:55:35;0.10;99.90
4985;DHT22;2509;49.902;8.600;2023-03-01T05:58:37;0.10;99.90
4985;DHT22;2509;49.902;8.600;2023-03-01T06:01:39;0.10;99.90
4985;DHT22;2509;49.902;8.600;2023-03-01T06:04:42;0.10;99.90
4985;DHT22;2509;49.902;8.600;2023-03-01T06:07:44;0.10;99.90
4985;DHT22;2509;49.902;8.600;2023-03-01T06:10:46;0.10;99.90
4985;DHT22;2509;49.902;8.600;2023-03-01T06:13:48;0.20;99.90
4985;DHT22;2509;49.902;8.600;2023-03-01T06:16:50;0.20;99.90
4985;DHT22;2509;49.902;8.600;2023-03-01T06:19:53;0.20;99.90
4985;DHT22;2509;49.902;8.600;2023-03-01T06:22:55;0.20;99.90
4985;DHT22;2509;49.902;8.600;2023-03-01T06:25:57;0.20;99.90
4985;DHT22;2509;49.902;8.600;2023-03-01T06:28:59;0.20;99.90
4985;DHT22;2509;49.902;8.600;2023-03-01T06:32:01;0.30;99.90
4985;DHT22;2509;49.902;8.600;2023-03-01T06:35:05;0.30;99.90
4985;DHT22;2509;49.902;8.600;2023-03-01T06:38:07;0.30;99.90
4985;DHT22;2509;49.902;8.600;2023-03-01T06:41:09;0.30;99.90
4985;DHT22;2509;49.902;8.600;2023-03-01T06:44:11;0.30;99.90
4985;DHT22;2509;49.902;8.600;2023-03-01T06:47:13;0.40;99.90
4985;DHT22;2509;49.902;8.600;2023-03-01T06:50:16;0.30;99.90
4985;DHT22;2509;49.902;8.600;2023-03-01T06:53:18;0.30;99.90
4985;DHT22;2509;49.902;8.600;2023-03-01T06:56:20;0.30;99.90
4985;DHT22;2509;49.902;8.600;2023-03-01T06:59:22;0.40;99.90
4985;DHT22;2509;49.902;8.600;2023-03-01T07:02:24;0.40;99.90
4985;DHT22;2509;49.902;8.600;2023-03-01T07:05:27;0.40;99.90
4985;DHT22;2509;49.902;8.600;2023-03-01T07:08:29;0.50;99.90
4985;DHT22;2509;49.902;8.600;2023-03-01T07:11:31;0.50;99.90
4985;DHT22;2509;49.902;8.600;2023-03-01T07:14:33;0.60;99.90
4985;DHT22;2509;49.902;8.600;2023-03-01T07:17:34;0.70;99.90
4985;DHT22;2509;49.902;8.600;2023-03-01T07:20:37;0.80;99.90
4985;DHT22;2509;49.902;8.600;2023-03-01T07:23:39;0.80;99.90
4985;DHT22;2509;49.902;8.600;2023-03-01T07:26:41;0.90;99.90
4985;DHT22;2509;49.902;8.600;2023-03-01T07:29:42;1.00;99.90
4985;DHT22;2509;49.902;8.600;2023-03-01T07:32:44;1.10;99.90
4985;DHT22;2509;49.902;8.600;2023-03-01T07:35:48;1.20;99.90
4985;DHT22;2509;49.902;8.600;2023-03-01T07:38:49;1.30;99.90
4985;DHT22;2509;49.902;8.600;2023-03-01T07:41:51;1.40;99.90
4985;DHT22;2509;49.902;8.600;2023-03-01T07:44:53;1.40;99.90
4985;DHT22;2509;49.902;8.600;2023-03-01T07:47:55;1.50;99.90
4985;DHT22;2509;49.902;8.600;2023-03-01T07:50:59;1.60;99.90
4985;DHT22;2509;49.902;8.600;2023-03-01T07:54:01;1.70;99.90
4985;DHT22;2509;49.902;8.600;2023-03-01T07:57:03;1.80;99.90
4985;DHT22;2509;49.902;8.600;2023-03-01T08:00:06;2.00;99.90
4985;DHT22;2509;49.902;8.600;2023-03-01T08:03:08;2.20;99.90
4985;DHT22;2509;49.902;8.600;2023-03-01T08:06:13;2.40;99.90
4985;DHT22;2509;49.902;8.600;2023-03-01T08:09:15;2.50;99.90
4985;DHT22;2509;49.902;8.600;2023-03-01T08:12:16;2.60;99.90
4985;DHT22;2509;49.902;8.600;2023-03-01T08:15:18;2.80;99.90
4985;DHT22;2509;49.902;8.600;2023-03-01T08:18:21;3.00;99.90
4985;DHT22;2509;49.902;8.600;2023-03-01T08:21:24;3.10;99.90
4985;DHT22;2509;49.902;8.600;2023-03-01T08:24:26;3.20;99.90
4985;DHT22;2509;49.902;8.600;2023-03-01T08:27:28;3.30;99.90
4985;DHT22;2509;49.902;8.600;2023-03-01T08:30:29;3.40;99.90
4985;DHT22;2509;49.902;8.600;2023-03-01T08:33:31;3.60;99.90
4985;DHT22;2509;49.902;8.600;2023-03-01T08:36:36;3.70;99.90
4985;DHT22;2509;49.902;8.600;2023-03-01T08:39:38;3.60;99.90
4985;DHT22;2509;49.902;8.600;2023-03-01T08:42:40;3.80;99.90
4985;DHT22;2509;49.902;8.600;2023-03-01T08:45:43;3.90;99.90
4985;DHT22;2509;49.902;8.600;2023-03-01T08:48:44;4.00;99.90
4985;DHT22;2509;49.902;8.600;2023-03-01T08:51:48;4.20;99.90
4985;DHT22;2509;49.902;8.600;2023-03-01T08:54:49;4.20;99.90
4985;DHT22;2509;49.902;8.600;2023-03-01T08:57:51;4.30;99.90
4985;DHT22;2509;49.902;8.600;2023-03-01T09:00:53;4.40;99.90
4985;DHT22;2509;49.902;8.600;2023-03-01T09:03:56;4.50;99.90
4985;DHT22;2509;49.902;8.600;2023-03-01T09:06:59;4.60;99.90
4985;DHT22;2509;49.902;8.600;2023-03-01T09:10:00;4.60;99.90
4985;DHT22;2509;49.902;8.600;2023-03-01T09:13:02;4.80;99.90
4985;DHT22;2509;49.902;8.600;2023-03-01T09:16:06;4.90;99.90
4985;DHT22;2509;49.902;8.600;2023-03-01T09:19:07;5.00;99.90
4985;DHT22;2509;49.902;8.600;2023-03-01T09:22:10;5.20;99.90
4985;DHT22;2509;49.902;8.600;2023-03-01T09:25:12;5.20;99.90
4985;DHT22;2509;49.902;8.600;2023-03-01T09:28:14;5.30;99.90
4985;DHT22;2509;49.902;8.600;2023-03-01T09:31:18;5.50;99.90
4985;DHT22;2509;49.902;8.600;2023-03-01T09:34:20;5.60;99.90
4985;DHT22;2509;49.902;8.600;2023-03-01T09:37:24;5.80;99.90
4985;DHT22;2509;49.902;8.600;2023-03-01T09:40:28;5.90;99.90
4985;DHT22;2509;49.902;8.600;2023-03-01T09:43:37;5.90;99.90
4985;DHT22;2509;49.902;8.600;2023-03-01T09:46:43;6.00;99.90
4985;DHT22;2509;49.902;8.600;2023-03-01T09:49:57;6.20;99.90
4985;DHT22;2509;49.902;8.600;2023-03-01T09:53:03;6.20;99.90
4985;DHT22;2509;49.902;8.600;2023-03-01T09:56:13;6.40;99.90
4985;DHT22;2509;49.902;8.600;2023-03-01T09:59:23;6.60;99.90
4985;DHT22;2509;49.902;8.600;2023-03-01T10:02:33;6.70;99.90
4985;DHT22;2509;49.902;8.600;2023-03-01T10:05:46;6.70;99.90
4985;DHT22;2509;49.902;8.600;2023-03-01T10:08:54;6.80;99.90
4985;DHT22;2509;49.902;8.600;2023-03-01T10:11:58;7.00;99.90
4985;DHT22;2509;49.902;8.600;2023-03-01T10:15:05;7.10;99.90
4985;DHT22;2509;49.902;8.600;2023-03-01T10:18:13;7.20;99.90
4985;DHT22;2509;49.902;8.600;2023-03-01T10:21:19;7.40;99.90
4985;DHT22;2509;49.902;8.600;2023-03-01T10:24:22;7.40;99.90
4985;DHT22;2509;49.902;8.600;2023-03-01T10:27:25;7.40;99.90
4985;DHT22;2509;49.902;8.600;2023-03-01T10:30:34;7.60;99.90
4985;DHT22;2509;49.902;8.600;2023-03-01T10:33:39;7.70;99.90
4985;DHT22;2509;49.902;8.600;2023-03-01T10:36:43;7.80;99.90
4985;DHT22;2509;49.902;8.600;2023-03-01T10:39:57;8.00;99.90
4985;DHT22;2509;49.902;8.600;2023-03-01T10:43:01;8.20;99.90
4985;DHT22;2509;49.902;8.600;2023-03-01T10:46:23;8.50;99.50
4985;DHT22;2509;49.902;8.600;2023-03-01T10:49:25;8.50;98.90
4985;DHT22;2509;49.902;8.600;2023-03-01T10:52:30;8.50;98.70
4985;DHT22;2509;49.902;8.600;2023-03-01T10:55:35;8.70;98.50
4985;DHT22;2509;49.902;8.600;2023-03-01T10:58:39;8.80;97.60
4985;DHT22;2509;49.902;8.600;2023-03-01T11:01:42;9.00;97.70
4985;DHT22;2509;49.902;8.600;2023-03-01T11:04:57;9.20;97.20
4985;DHT22;2509;49.902;8.600;2023-03-01T11:08:01;9.30;95.80
4985;DHT22;2509;49.902;8.600;2023-03-01T11:14:25;9.40;95.80
4985;DHT22;2509;49.902;8.600;2023-03-01T11:17:28;9.50;95.30
4985;DHT22;2509;49.902;8.600;2023-03-01T11:20:33;9.50;94.30
4985;DHT22;2509;49.902;8.600;2023-03-01T11:23:37;9.50;94.40
4985;DHT22;2509;49.902;8.600;2023-03-01T11:26:45;9.70;95.70
4985;DHT22;2509;49.902;8.600;2023-03-01T11:34:47;10.10;94.90
4985;DHT22;2509;49.902;8.600;2023-03-01T11:38:43;10.60;94.10
4985;DHT22;2509;49.902;8.600;2023-03-01T11:42:45;10.70;92.20
4985;DHT22;2509;49.902;8.600;2023-03-01T11:51:09;11.10;92.30
4985;DHT22;2509;49.902;8.600;2023-03-01T11:54:43;11.40;90.20
4985;DHT22;2509;49.902;8.600;2023-03-01T12:02:16;12.60;88.50
4985;DHT22;2509;49.902;8.600;2023-03-01T12:10:13;12.90;85.90
4985;DHT22;2509;49.902;8.600;2023-03-01T12:14:06;13.10;85.10
4985;DHT22;2509;49.902;8.600;2023-03-01T12:17:25;13.00;84.20
4985;DHT22;2509;49.902;8.600;2023-03-01T12:20:35;13.00;83.60
4985;DHT22;2509;49.902;8.600;2023-03-01T12:27:32;14.30;82.00
4985;DHT22;2509;49.902;8.600;2023-03-01T12:30:54;14.40;81.40
4985;DHT22;2509;49.902;8.600;2023-03-01T12:34:02;14.70;80.40
4985;DHT22;2509;49.902;8.600;2023-03-01T12:37:22;15.10;79.50
4985;DHT22;2509;49.902;8.600;2023-03-01T12:40:36;14.90;78.80
4985;DHT22;2509;49.902;8.600;2023-03-01T12:43:55;14.70;78.80
4985;DHT22;2509;49.902;8.600;2023-03-01T12:47:19;14.70;78.60
4985;DHT22;2509;49.902;8.600;2023-03-01T12:50:28;14.90;78.30
4985;DHT22;2509;49.902;8.600;2023-03-01T12:53:36;15.20;77.40
4985;DHT22;2509;49.902;8.600;2023-03-01T12:56:38;14.90;77.90
4985;DHT22;2509;49.902;8.600;2023-03-01T12:59:48;15.10;77.00
4985;DHT22;2509;49.902;8.600;2023-03-01T13:02:58;14.80;77.40
4985;DHT22;2509;49.902;8.600;2023-03-01T13:06:08;14.90;77.10
4985;DHT22;2509;49.902;8.600;2023-03-01T13:09:22;14.60;77.30
4985;DHT22;2509;49.902;8.600;2023-03-01T13:12:49;14.90;76.90
4985;DHT22;2509;49.902;8.600;2023-03-01T13:15:52;14.90;77.40
4985;DHT22;2509;49.902;8.600;2023-03-01T13:19:10;14.50;77.70
4985;DHT22;2509;49.902;8.600;2023-03-01T13:22:29;14.50;78.20
4985;DHT22;2509;49.902;8.600;2023-03-01T13:25:32;15.30;77.50
4985;DHT22;2509;49.902;8.600;2023-03-01T13:28:49;15.40;77.00
4985;DHT22;2509;49.902;8.600;2023-03-01T13:31:59;15.40;76.60
4985;DHT22;2509;49.902;8.600;2023-03-01T13:35:06;15.00;75.90
4985;DHT22;2509;49.902;8.600;2023-03-01T13:38:46;15.00;76.80
4985;DHT22;2509;49.902;8.600;2023-03-01T13:41:50;15.00;76.80
4985;DHT22;2509;49.902;8.600;2023-03-01T13:44:52;15.10;76.00
4985;DHT22;2509;49.902;8.600;2023-03-01T13:47:56;15.50;75.60
4985;DHT22;2509;49.902;8.600;2023-03-01T13:51:02;15.10;75.50
4985;DHT22;2509;49.902;8.600;2023-03-01T13:54:11;14.90;75.50
4985;DHT22;2509;49.902;8.600;2023-03-01T13:57:21;14.80;75.70
4985;DHT22;2509;49.902;8.600;2023-03-01T14:00:27;15.30;75.30
4985;DHT22;2509;49.902;8.600;2023-03-01T14:03:30;14.60;76.60
4985;DHT22;2509;49.902;8.600;2023-03-01T14:06:33;14.30;76.60
4985;DHT22;2509;49.902;8.600;2023-03-01T14:09:39;14.60;77.20
4985;DHT22;2509;49.902;8.600;2023-03-01T14:12:46;14.80;76.30
4985;DHT22;2509;49.902;8.600;2023-03-01T14:16:03;15.30;76.00
4985;DHT22;2509;49.902;8.600;2023-03-01T14:19:15;15.50;74.60
4985;DHT22;2509;49.902;8.600;2023-03-01T14:22:20;15.00;74.90
4985;DHT22;2509;49.902;8.600;2023-03-01T14:25:27;15.00;75.70
4985;DHT22;2509;49.902;8.600;2023-03-01T14:28:31;14.70;75.80
4985;DHT22;2509;49.902;8.600;2023-03-01T14:31:36;14.40;76.20
4985;DHT22;2509;49.902;8.600;2023-03-01T14:34:43;14.40;76.40
4985;DHT22;2509;49.902;8.600;2023-03-01T14:37:45;14.10;76.60
4985;DHT22;2509;49.902;8.600;2023-03-01T14:40:56;14.30;76.90
4985;DHT22;2509;49.902;8.600;2023-03-01T14:44:00;14.40;77.10
4985;DHT22;2509;49.902;8.600;2023-03-01T14:47:04;14.50;76.40
4985;DHT22;2509;49.902;8.600;2023-03-01T14:50:09;14.50;76.40
4985;DHT22;2509;49.902;8.600;2023-03-01T14:53:18;14.40;76.20
4985;DHT22;2509;49.902;8.600;2023-03-01T14:56:22;13.80;77.40
4985;DHT22;2509;49.902;8.600;2023-03-01T14:59:24;13.50;78.10
4985;DHT22;2509;49.902;8.600;2023-03-01T15:02:27;13.60;78.00
4985;DHT22;2509;49.902;8.600;2023-03-01T15:05:31;13.50;78.20
4985;DHT22;2509;49.902;8.600;2023-03-01T15:08:34;13.00;78.70
4985;DHT22;2509;49.902;8.600;2023-03-01T15:11:38;13.20;79.10
4985;DHT22;2509;49.902;8.600;2023-03-01T15:14:44;13.50;78.90
4985;DHT22;2509;49.902;8.600;2023-03-01T15:17:52;13.70;78.10
4985;DHT22;2509;49.902;8.600;2023-03-01T15:20:56;13.30;78.60
4985;DHT22;2509;49.902;8.600;2023-03-01T15:24:13;12.80;79.50
4985;DHT22;2509;49.902;8.600;2023-03-01T15:27:24;12.90;80.20
4985;DHT22;2509;49.902;8.600;2023-03-01T15:30:29;13.30;79.50
4985;DHT22;2509;49.902;8.600;2023-03-01T15:33:36;13.40;78.70
4985;DHT22;2509;49.902;8.600;2023-03-01T15:36:43;13.50;78.80
4985;DHT22;2509;49.902;8.600;2023-03-01T15:39:53;13.60;79.00
4985;DHT22;2509;49.902;8.600;2023-03-01T15:42:57;13.40;79.10
4985;DHT22;2509;49.902;8.600;2023-03-01T15:45:59;13.10;79.00
4985;DHT22;2509;49.902;8.600;2023-03-01T15:49:03;12.40;79.80
4985;DHT22;2509;49.902;8.600;2023-03-01T15:52:10;12.30;80.90
4985;DHT22;2509;49.902;8.600;2023-03-01T15:55:19;12.20;81.40
4985;DHT22;2509;49.902;8.600;2023-03-01T15:58:23;11.80;82.00
4985;DHT22;2509;49.902;8.600;2023-03-01T16:01:25;11.40;83.50
4985;DHT22;2509;49.902;8.600;2023-03-01T16:04:27;10.90;84.40
4985;DHT22;2509;49.902;8.600;2023-03-01T16:07:28;10.60;84.90
4985;DHT22;2509;49.902;8.600;2023-03-01T16:10:32;10.40;85.50
4985;DHT22;2509;49.902;8.600;2023-03-01T16:13:35;10.30;86.10
4985;DHT22;2509;49.902;8.600;2023-03-01T16:16:36;10.20;86.30
4985;DHT22;2509;49.902;8.600;2023-03-01T16:19:38;10.00;86.60
4985;DHT22;2509;49.902;8.600;2023-03-01T16:22:41;9.80;87.10
4985;DHT22;2509;49.902;8.600;2023-03-01T16:25:44;9.80;87.50
4985;DHT22;2509;49.902;8.600;2023-03-01T16:28:47;9.50;88.20
4985;DHT22;2509;49.902;8.600;2023-03-01T16:31:49;9.30;89.10
4985;DHT22;2509;49.902;8.600;2023-03-01T16:34:51;9.30;89.40
4985;DHT22;2509;49.902;8.600;2023-03-01T16:37:53;9.10;89.70
4985;DHT22;2509;49.902;8.600;2023-03-01T16:40:54;9.10;90.00
4985;DHT22;2509;49.902;8.600;2023-03-01T16:43:58;8.90;90.20
4985;DHT22;2509;49.902;8.600;2023-03-01T16:46:59;8.80;90.70
4985;DHT22;2509;49.902;8.600;2023-03-01T16:50:01;8.70;91.30
4985;DHT22;2509;49.902;8.600;2023-03-01T16:53:03;8.60;91.60
4985;DHT22;2509;49.902;8.600;2023-03-01T16:56:07;8.60;91.80
4985;DHT22;2509;49.902;8.600;2023-03-01T16:59:11;8.40;91.90
4985;DHT22;2509;49.902;8.600;2023-03-01T17:02:13;8.30;92.30
4985;DHT22;2509;49.902;8.600;2023-03-01T17:05:19;8.10;92.40
4985;DHT22;2509;49.902;8.600;2023-03-01T17:08:24;8.00;93.00
4985;DHT22;2509;49.902;8.600;2023-03-01T17:11:26;7.80;93.60
4985;DHT22;2509;49.902;8.600;2023-03-01T17:14:29;7.80;94.00
4985;DHT22;2509;49.902;8.600;2023-03-01T17:17:31;7.70;94.30
4985;DHT22;2509;49.902;8.600;2023-03-01T17:20:32;7.70;94.80
4985;DHT22;2509;49.902;8.600;2023-03-01T17:23:35;7.50;94.90
4985;DHT22;2509;49.902;8.600;2023-03-01T17:26:38;7.40;95.70
4985;DHT22;2509;49.902;8.600;2023-03-01T17:29:41;7.20;95.90
4985;DHT22;2509;49.902;8.600;2023-03-01T17:32:43;7.20;96.30
4985;DHT22;2509;49.902;8.600;2023-03-01T17:35:45;7.10;96.50
4985;DHT22;2509;49.902;8.600;2023-03-01T17:38:46;7.00;96.90
4985;DHT22;2509;49.902;8.600;2023-03-01T17:41:49;7.00;96.80
4985;DHT22;2509;49.902;8.600;2023-03-01T17:44:52;6.90;97.20
4985;DHT22;2509;49.902;8.600;2023-03-01T17:47:53;6.80;97.70
4985;DHT22;2509;49.902;8.600;2023-03-01T17:50:55;6.70;98.00
4985;DHT22;2509;49.902;8.600;2023-03-01T17:53:57;6.60;98.20
4985;DHT22;2509;49.902;8.600;2023-03-01T17:56:59;6.60;98.30
4985;DHT22;2509;49.902;8.600;2023-03-01T18:00:03;6.60;98.40
4985;DHT22;2509;49.902;8.600;2023-03-01T18:03:05;6.40;98.70
4985;DHT22;2509;49.902;8.600;2023-03-01T18:06:11;6.40;99.00
4985;DHT22;2509;49.902;8.600;2023-03-01T18:09:13;6.30;99.20
4985;DHT22;2509;49.902;8.600;2023-03-01T18:12:15;6.30;99.50
4985;DHT22;2509;49.902;8.600;2023-03-01T18:15:18;6.20;99.50
4985;DHT22;2509;49.902;8.600;2023-03-01T18:18:20;6.10;99.80
4985;DHT22;2509;49.902;8.600;2023-03-01T18:21:22;6.00;99.90
4985;DHT22;2509;49.902;8.600;2023-03-01T18:24:24;6.00;99.90
4985;DHT22;2509;49.902;8.600;2023-03-01T18:27:26;6.00;99.90
4985;DHT22;2509;49.902;8.600;2023-03-01T18:30:29;5.90;99.90
4985;DHT22;2509;49.902;8.600;2023-03-01T18:33:32;5.80;99.90
4985;DHT22;2509;49.902;8.600;2023-03-01T18:36:34;5.70;99.90
4985;DHT22;2509;49.902;8.600;2023-03-01T18:39:36;5.60;99.90
4985;DHT22;2509;49.902;8.600;2023-03-01T18:42:38;5.60;99.90
4985;DHT22;2509;49.902;8.600;2023-03-01T18:45:41;5.60;99.90
4985;DHT22;2509;49.902;8.600;2023-03-01T18:48:44;5.50;99.90
4985;DHT22;2509;49.902;8.600;2023-03-01T18:51:46;5.50;99.90
4985;DHT22;2509;49.902;8.600;2023-03-01T18:54:49;5.50;99.90
4985;DHT22;2509;49.902;8.600;2023-03-01T18:57:51;5.50;99.90
4985;DHT22;2509;49.902;8.600;2023-03-01T19:00:54;5.40;99.90
4985;DHT22;2509;49.902;8.600;2023-03-01T19:03:56;5.40;99.90
4985;DHT22;2509;49.902;8.600;2023-03-01T19:06:58;5.30;99.90
4985;DHT22;2509;49.902;8.600;2023-03-01T19:10:01;5.20;99.90
4985;DHT22;2509;49.902;8.600;2023-03-01T19:13:03;5.20;99.90
4985;DHT22;2509;49.902;8.600;2023-03-01T19:16:08;5.20;99.90
4985;DHT22;2509;49.902;8.600;2023-03-01T19:19:11;5.10;99.90
4985;DHT22;2509;49.902;8.600;2023-03-01T19:22:12;5.00;99.90
4985;DHT22;2509;49.902;8.600;2023-03-01T19:25:14;5.10;99.90
4985;DHT22;2509;49.902;8.600;2023-03-01T19:28:16;5.00;99.90
4985;DHT22;2509;49.902;8.600;2023-03-01T19:31:20;5.00;99.90
4985;DHT22;2509;49.902;8.600;2023-03-01T19:34:23;5.00;99.90
4985;DHT22;2509;49.902;8.600;2023-03-01T19:37:25;4.90;99.90
4985;DHT22;2509;49.902;8.600;2023-03-01T19:40:27;4.90;99.90
4985;DHT22;2509;49.902;8.600;2023-03-01T19:43:28;4.80;99.90
4985;DHT22;2509;49.902;8.600;2023-03-01T19:46:32;4.70;99.90
4985;DHT22;2509;49.902;8.600;2023-03-01T19:49:34;4.60;99.90
4985;DHT22;2509;49.902;8.600;2023-03-01T19:52:37;4.70;99.90
4985;DHT22;2509;49.902;8.600;2023-03-01T19:55:39;4.60;99.90
4985;DHT22;2509;49.902;8.600;2023-03-01T19:58:40;4.60;99.90
4985;DHT22;2509;49.902;8.600;2023-03-01T20:01:44;4.60;99.90
4985;DHT22;2509;49.902;8.600;2023-03-01T20:04:46;4.50;99.90
4985;DHT22;2509;49.902;8.600;2023-03-01T20:07:47;4.60;99.90
4985;DHT22;2509;49.902;8.600;2023-03-01T20:10:51;4.50;99.90
4985;DHT22;2509;49.902;8.600;2023-03-01T20:13:52;4.50;99.90
4985;DHT22;2509;49.902;8.600;2023-03-01T20:16:55;4.40;99.90
4985;DHT22;2509;49.902;8.600;2023-03-01T20:19:57;4.40;99.90
4985;DHT22;2509;49.902;8.600;2023-03-01T20:22:59;4.30;99.90
4985;DHT22;2509;49.902;8.600;2023-03-01T20:26:02;4.30;99.90
4985;DHT22;2509;49.902;8.600;2023-03-01T20:29:06;4.30;99.90
4985;DHT22;2509;49.902;8.600;2023-03-01T20:32:09;4.30;99.90
4985;DHT22;2509;49.902;8.600;2023-03-01T20:35:11;4.20;99.90
4985;DHT22;2509;49.902;8.600;2023-03-01T20:38:13;4.10;99.90
4985;DHT22;2509;49.902;8.600;2023-03-01T20:41:15;4.10;99.90
4985;DHT22;2509;49.902;8.600;2023-03-01T20:44:16;4.10;99.90
4985;DHT22;2509;49.902;8.600;2023-03-01T20:47:19;4.00;99.90